sensor_id;sensor_type;location;lat;lon;timestamp;P1;durP1;ratioP1;P2;durP2;ratioP2
13481;SDS011;6813;60.352;15.746;2023-02-01T00:01:17;1.23;;;0.70;;
13481;SDS011;6813;60.352;15.746;2023-02-01T00:03:43;2.60;;;1.20;;
13481;SDS011;6813;60.352;15.746;2023-02-01T00:06:09;2.43;;;0.90;;
13481;SDS011;6813;60.352;15.746;2023-02-01T00:08:34;2.70;;;0.87;;
13481;SDS011;6813;60.352;15.746;2023-02-01T00:11:04;4.50;;;0.90;;
13481;SDS011;6813;60.352;15.746;2023-02-01T00:13:32;1.70;;;0.87;;
13481;SDS011;6813;60.352;15.746;2023-02-01T00:16:03;2.30;;;1.17;;
13481;SDS011;6813;60.352;15.746;2023-02-01T00:18:30;2.47;;;1.50;;
13481;SDS011;6813;60.352;15.746;2023-02-01T00:20:55;3.53;;;1.50;;
13481;SDS011;6813;60.352;15.746;2023-02-01T00:23:21;7.17;;;1.43;;
13481;SDS011;6813;60.352;15.746;2023-02-01T00:25:47;2.17;;;1.60;;
13481;SDS011;6813;60.352;15.746;2023-02-01T00:28:12;4.83;;;1.30;;
13481;SDS011;6813;60.352;15.746;2023-02-01T00:30:38;2.97;;;1.37;;
13481;SDS011;6813;60.352;15.746;2023-02-01T00:33:04;1.50;;;0.80;;
13481;SDS011;6813;60.352;15.746;2023-02-01T00:35:30;1.80;;;1.13;;
13481;SDS011;6813;60.352;15.746;2023-02-01T00:37:55;1.53;;;0.93;;
13481;SDS011;6813;60.352;15.746;2023-02-01T00:40:24;3.20;;;0.97;;
13481;SDS011;6813;60.352;15.746;2023-02-01T00:42:49;2.33;;;1.17;;
13481;SDS011;6813;60.352;15.746;2023-02-01T00:45:15;1.10;;;0.60;;
13481;SDS011;6813;60.352;15.746;2023-02-01T00:47:41;1.83;;;1.10;;
13481;SDS011;6813;60.352;15.746;2023-02-01T00:50:07;2.83;;;1.87;;
13481;SDS011;6813;60.352;15.746;2023-02-01T00:52:33;5.23;;;1.50;;
13481;SDS011;6813;60.352;15.746;2023-02-01T00:54:59;2.70;;;1.80;;
13481;SDS011;6813;60.352;15.746;2023-02-01T00:57:24;4.10;;;1.90;;
13481;SDS011;6813;60.352;15.746;2023-02-01T00:59:50;4.13;;;1.70;;
13481;SDS011;6813;60.352;15.746;2023-02-01T01:02:16;6.67;;;2.10;;
13481;SDS011;6813;60.352;15.746;2023-02-01T01:04:41;3.57;;;1.70;;
13481;SDS011;6813;60.352;15.746;2023-02-01T01:07:07;4.40;;;2.30;;
13481;SDS011;6813;60.352;15.746;2023-02-01T01:09:33;3.70;;;1.90;;
13481;SDS011;6813;60.352;15.746;2023-02-01T01:11:59;3.00;;;1.77;;
13481;SDS011;6813;60.352;15.746;2023-02-01T01:14:28;2.93;;;1.97;;
13481;SDS011;6813;60.352;15.746;2023-02-01T01:16:54;3.50;;;1.73;;
13481;SDS011;6813;60.352;15.746;2023-02-01T01:19:20;4.03;;;1.73;;
13481;SDS011;6813;60.352;15.746;2023-02-01T01:21:46;3.77;;;1.80;;
13481;SDS011;6813;60.352;15.746;2023-02-01T01:24:12;3.60;;;2.00;;
13481;SDS011;6813;60.352;15.746;2023-02-01T01:26:37;4.17;;;1.60;;
13481;SDS011;6813;60.352;15.746;2023-02-01T01:29:03;2.70;;;1.53;;
13481;SDS011;6813;60.352;15.746;2023-02-01T01:31:29;2.20;;;1.60;;
13481;SDS011;6813;60.352;15.746;2023-02-01T01:33:57;3.40;;;1.87;;
13481;SDS011;6813;60.352;15.746;2023-02-01T01:36:24;4.73;;;1.73;;
13481;SDS011;6813;60.352;15.746;2023-02-01T01:38:51;3.00;;;1.90;;
13481;SDS011;6813;60.352;15.746;2023-02-01T01:41:18;2.97;;;1.77;;
13481;SDS011;6813;60.352;15.746;2023-02-01T01:43:46;18.37;;;2.30;;
13481;SDS011;6813;60.352;15.746;2023-02-01T01:46:44;12.03;;;2.50;;
13481;SDS011;6813;60.352;15.746;2023-02-01T01:51:40;4.13;;;2.57;;
13481;SDS011;6813;60.352;15.746;2023-02-01T01:56:38;2.87;;;2.07;;
13481;SDS011;6813;60.352;15.746;2023-02-01T01:59:05;3.43;;;2.37;;
13481;SDS011;6813;60.352;15.746;2023-02-01T02:01:32;6.53;;;2.20;;
13481;SDS011;6813;60.352;15.746;2023-02-01T02:03:58;3.90;;;2.20;;
13481;SDS011;6813;60.352;15.746;2023-02-01T02:08:59;3.10;;;1.77;;
13481;SDS011;6813;60.352;15.746;2023-02-01T02:11:26;4.57;;;2.00;;
13481;SDS011;6813;60.352;15.746;2023-02-01T02:13:52;5.03;;;1.97;;
13481;SDS011;6813;60.352;15.746;2023-02-01T02:16:24;12.13;;;2.47;;
13481;SDS011;6813;60.352;15.746;2023-02-01T02:24:34;3.17;;;1.90;;
13481;SDS011;6813;60.352;15.746;2023-02-01T02:38:52;3.33;;;1.83;;
13481;SDS011;6813;60.352;15.746;2023-02-01T02:41:35;5.30;;;2.23;;
13481;SDS011;6813;60.352;15.746;2023-02-01T02:44:56;2.60;;;1.70;;
13481;SDS011;6813;60.352;15.746;2023-02-01T02:50:31;6.10;;;1.93;;
13481;SDS011;6813;60.352;15.746;2023-02-01T02:53:48;3.40;;;2.30;;
13481;SDS011;6813;60.352;15.746;2023-02-01T02:56:40;1.97;;;1.47;;
13481;SDS011;6813;60.352;15.746;2023-02-01T02:59:25;5.03;;;2.00;;
13481;SDS011;6813;60.352;15.746;2023-02-01T03:02:11;3.80;;;2.00;;
13481;SDS011;6813;60.352;15.746;2023-02-01T03:04:57;3.63;;;1.53;;
13481;SDS011;6813;60.352;15.746;2023-02-01T03:10:37;3.67;;;2.00;;
13481;SDS011;6813;60.352;15.746;2023-02-01T03:13:11;3.43;;;2.13;;
13481;SDS011;6813;60.352;15.746;2023-02-01T03:18:13;2.63;;;1.97;;
13481;SDS011;6813;60.352;15.746;2023-02-01T03:20:44;4.87;;;1.80;;
13481;SDS011;6813;60.352;15.746;2023-02-01T03:23:13;4.53;;;1.73;;
13481;SDS011;6813;60.352;15.746;2023-02-01T03:25:42;2.50;;;1.93;;
13481;SDS011;6813;60.352;15.746;2023-02-01T03:28:08;2.27;;;1.77;;
13481;SDS011;6813;60.352;15.746;2023-02-01T03:30:37;3.07;;;1.80;;
13481;SDS011;6813;60.352;15.746;2023-02-01T03:33:08;5.67;;;2.70;;
13481;SDS011;6813;60.352;15.746;2023-02-01T03:41:12;2.60;;;2.10;;
13481;SDS011;6813;60.352;15.746;2023-02-01T03:46:45;4.90;;;3.03;;
13481;SDS011;6813;60.352;15.746;2023-02-01T03:51:58;3.37;;;2.17;;
13481;SDS011;6813;60.352;15.746;2023-02-01T03:54:26;3.60;;;2.50;;
13481;SDS011;6813;60.352;15.746;2023-02-01T03:56:54;3.53;;;2.00;;
13481;SDS011;6813;60.352;15.746;2023-02-01T03:59:22;3.87;;;2.00;;
13481;SDS011;6813;60.352;15.746;2023-02-01T04:01:49;4.17;;;1.47;;
13481;SDS011;6813;60.352;15.746;2023-02-01T04:04:15;3.23;;;1.70;;
13481;SDS011;6813;60.352;15.746;2023-02-01T04:06:48;6.47;;;1.67;;
13481;SDS011;6813;60.352;15.746;2023-02-01T04:09:14;4.20;;;2.27;;
13481;SDS011;6813;60.352;15.746;2023-02-01T04:11:40;3.27;;;2.17;;
13481;SDS011;6813;60.352;15.746;2023-02-01T04:14:06;4.73;;;3.00;;
13481;SDS011;6813;60.352;15.746;2023-02-01T04:16:32;4.00;;;2.03;;
13481;SDS011;6813;60.352;15.746;2023-02-01T04:18:58;4.27;;;2.20;;
13481;SDS011;6813;60.352;15.746;2023-02-01T04:21:24;2.50;;;1.53;;
13481;SDS011;6813;60.352;15.746;2023-02-01T04:23:51;4.03;;;2.10;;
13481;SDS011;6813;60.352;15.746;2023-02-01T04:26:17;5.23;;;2.03;;
13481;SDS011;6813;60.352;15.746;2023-02-01T04:28:43;3.63;;;2.13;;
13481;SDS011;6813;60.352;15.746;2023-02-01T04:31:12;1.93;;;1.60;;
13481;SDS011;6813;60.352;15.746;2023-02-01T04:33:38;2.43;;;1.67;;
13481;SDS011;6813;60.352;15.746;2023-02-01T04:36:04;5.63;;;2.00;;
13481;SDS011;6813;60.352;15.746;2023-02-01T04:38:30;3.00;;;1.90;;
13481;SDS011;6813;60.352;15.746;2023-02-01T04:40:57;2.50;;;1.70;;
13481;SDS011;6813;60.352;15.746;2023-02-01T04:43:23;2.87;;;1.63;;
13481;SDS011;6813;60.352;15.746;2023-02-01T04:45:50;2.97;;;2.13;;
13481;SDS011;6813;60.352;15.746;2023-02-01T04:48:17;1.73;;;1.40;;
13481;SDS011;6813;60.352;15.746;2023-02-01T04:50:44;3.27;;;2.10;;
13481;SDS011;6813;60.352;15.746;2023-02-01T04:53:16;6.40;;;2.23;;
13481;SDS011;6813;60.352;15.746;2023-02-01T04:55:42;2.87;;;1.67;;
13481;SDS011;6813;60.352;15.746;2023-02-01T04:58:09;2.73;;;1.80;;
13481;SDS011;6813;60.352;15.746;2023-02-01T05:00:36;2.80;;;1.47;;
13481;SDS011;6813;60.352;15.746;2023-02-01T05:03:02;2.37;;;1.77;;
13481;SDS011;6813;60.352;15.746;2023-02-01T05:05:28;4.27;;;1.80;;
13481;SDS011;6813;60.352;15.746;2023-02-01T05:07:54;2.50;;;1.67;;
13481;SDS011;6813;60.352;15.746;2023-02-01T05:10:20;3.70;;;1.77;;
13481;SDS011;6813;60.352;15.746;2023-02-01T05:12:49;3.27;;;1.90;;
13481;SDS011;6813;60.352;15.746;2023-02-01T05:15:33;1.93;;;1.63;;
13481;SDS011;6813;60.352;15.746;2023-02-01T05:17:59;2.73;;;1.90;;
13481;SDS011;6813;60.352;15.746;2023-02-01T05:20:24;6.23;;;2.33;;
13481;SDS011;6813;60.352;15.746;2023-02-01T05:22:50;9.70;;;2.40;;
13481;SDS011;6813;60.352;15.746;2023-02-01T05:25:16;12.33;;;2.90;;
13481;SDS011;6813;60.352;15.746;2023-02-01T05:27:42;3.83;;;2.30;;
13481;SDS011;6813;60.352;15.746;2023-02-01T05:30:08;3.20;;;2.47;;
13481;SDS011;6813;60.352;15.746;2023-02-01T05:32:34;4.43;;;1.90;;
13481;SDS011;6813;60.352;15.746;2023-02-01T05:35:00;4.70;;;2.00;;
13481;SDS011;6813;60.352;15.746;2023-02-01T05:37:26;2.90;;;1.90;;
13481;SDS011;6813;60.352;15.746;2023-02-01T05:39:52;2.60;;;1.67;;
13481;SDS011;6813;60.352;15.746;2023-02-01T05:42:17;2.87;;;1.90;;
13481;SDS011;6813;60.352;15.746;2023-02-01T05:44:43;3.70;;;1.80;;
13481;SDS011;6813;60.352;15.746;2023-02-01T05:47:09;3.93;;;2.10;;
13481;SDS011;6813;60.352;15.746;2023-02-01T05:49:35;7.43;;;2.10;;
13481;SDS011;6813;60.352;15.746;2023-02-01T05:52:01;6.53;;;2.03;;
13481;SDS011;6813;60.352;15.746;2023-02-01T05:54:27;7.17;;;2.07;;
13481;SDS011;6813;60.352;15.746;2023-02-01T05:56:53;3.77;;;2.00;;
13481;SDS011;6813;60.352;15.746;2023-02-01T05:59:19;5.00;;;2.17;;
13481;SDS011;6813;60.352;15.746;2023-02-01T06:01:44;4.30;;;2.17;;
13481;SDS011;6813;60.352;15.746;2023-02-01T06:04:10;11.73;;;2.77;;
13481;SDS011;6813;60.352;15.746;2023-02-01T06:06:36;8.23;;;2.47;;
13481;SDS011;6813;60.352;15.746;2023-02-01T06:09:02;8.07;;;2.20;;
13481;SDS011;6813;60.352;15.746;2023-02-01T06:11:28;7.23;;;2.37;;
13481;SDS011;6813;60.352;15.746;2023-02-01T06:13:54;3.70;;;2.07;;
13481;SDS011;6813;60.352;15.746;2023-02-01T06:16:20;9.03;;;2.50;;
13481;SDS011;6813;60.352;15.746;2023-02-01T06:18:46;11.37;;;2.30;;
13481;SDS011;6813;60.352;15.746;2023-02-01T06:21:12;5.27;;;2.50;;
13481;SDS011;6813;60.352;15.746;2023-02-01T06:23:52;7.53;;;2.60;;
13481;SDS011;6813;60.352;15.746;2023-02-01T06:26:18;5.23;;;2.67;;
13481;SDS011;6813;60.352;15.746;2023-02-01T06:28:45;3.57;;;2.27;;
13481;SDS011;6813;60.352;15.746;2023-02-01T06:31:10;7.07;;;3.90;;
13481;SDS011;6813;60.352;15.746;2023-02-01T06:33:36;6.40;;;2.90;;
13481;SDS011;6813;60.352;15.746;2023-02-01T06:36:04;11.07;;;3.03;;
13481;SDS011;6813;60.352;15.746;2023-02-01T06:38:31;3.60;;;2.30;;
13481;SDS011;6813;60.352;15.746;2023-02-01T06:40:59;2.13;;;1.70;;
13481;SDS011;6813;60.352;15.746;2023-02-01T06:43:26;3.10;;;2.17;;
13481;SDS011;6813;60.352;15.746;2023-02-01T06:45:53;2.20;;;1.80;;
13481;SDS011;6813;60.352;15.746;2023-02-01T06:48:19;2.63;;;1.90;;
13481;SDS011;6813;60.352;15.746;2023-02-01T06:50:44;4.83;;;2.43;;
13481;SDS011;6813;60.352;15.746;2023-02-01T06:53:10;4.13;;;2.20;;
13481;SDS011;6813;60.352;15.746;2023-02-01T06:55:36;7.60;;;2.07;;
13481;SDS011;6813;60.352;15.746;2023-02-01T06:58:02;2.77;;;1.63;;
13481;SDS011;6813;60.352;15.746;2023-02-01T07:00:28;4.47;;;2.10;;
13481;SDS011;6813;60.352;15.746;2023-02-01T07:02:54;2.47;;;1.90;;
13481;SDS011;6813;60.352;15.746;2023-02-01T07:05:22;4.40;;;2.40;;
13481;SDS011;6813;60.352;15.746;2023-02-01T07:07:48;3.43;;;2.07;;
13481;SDS011;6813;60.352;15.746;2023-02-01T07:10:13;3.67;;;2.13;;
13481;SDS011;6813;60.352;15.746;2023-02-01T07:12:39;5.10;;;3.23;;
13481;SDS011;6813;60.352;15.746;2023-02-01T07:15:05;3.87;;;2.70;;
13481;SDS011;6813;60.352;15.746;2023-02-01T07:17:31;4.80;;;2.30;;
13481;SDS011;6813;60.352;15.746;2023-02-01T07:19:57;5.53;;;2.87;;
13481;SDS011;6813;60.352;15.746;2023-02-01T07:22:26;4.80;;;2.67;;
13481;SDS011;6813;60.352;15.746;2023-02-01T07:24:52;2.83;;;2.30;;
13481;SDS011;6813;60.352;15.746;2023-02-01T07:27:18;9.40;;;3.20;;
13481;SDS011;6813;60.352;15.746;2023-02-01T07:29:45;4.30;;;2.67;;
13481;SDS011;6813;60.352;15.746;2023-02-01T07:32:10;5.70;;;2.53;;
13481;SDS011;6813;60.352;15.746;2023-02-01T07:34:36;3.97;;;2.17;;
13481;SDS011;6813;60.352;15.746;2023-02-01T07:37:02;3.07;;;2.47;;
13481;SDS011;6813;60.352;15.746;2023-02-01T07:39:28;6.20;;;2.60;;
13481;SDS011;6813;60.352;15.746;2023-02-01T07:41:56;3.63;;;2.40;;
13481;SDS011;6813;60.352;15.746;2023-02-01T07:44:22;3.40;;;2.40;;
13481;SDS011;6813;60.352;15.746;2023-02-01T07:46:49;4.00;;;2.27;;
13481;SDS011;6813;60.352;15.746;2023-02-01T07:49:14;3.83;;;2.40;;
13481;SDS011;6813;60.352;15.746;2023-02-01T07:51:42;9.60;;;3.30;;
13481;SDS011;6813;60.352;15.746;2023-02-01T07:54:08;7.80;;;2.80;;
13481;SDS011;6813;60.352;15.746;2023-02-01T07:56:33;6.00;;;2.47;;
13481;SDS011;6813;60.352;15.746;2023-02-01T07:58:59;3.00;;;2.47;;
13481;SDS011;6813;60.352;15.746;2023-02-01T08:01:26;2.73;;;2.00;;
13481;SDS011;6813;60.352;15.746;2023-02-01T08:03:56;5.10;;;2.53;;
13481;SDS011;6813;60.352;15.746;2023-02-01T08:06:26;4.47;;;2.50;;
13481;SDS011;6813;60.352;15.746;2023-02-01T08:08:57;5.13;;;2.67;;
13481;SDS011;6813;60.352;15.746;2023-02-01T08:11:23;4.23;;;2.53;;
13481;SDS011;6813;60.352;15.746;2023-02-01T08:13:50;3.03;;;2.43;;
13481;SDS011;6813;60.352;15.746;2023-02-01T08:16:16;3.67;;;2.50;;
13481;SDS011;6813;60.352;15.746;2023-02-01T08:18:43;4.87;;;3.03;;
13481;SDS011;6813;60.352;15.746;2023-02-01T08:21:11;4.20;;;2.83;;
13481;SDS011;6813;60.352;15.746;2023-02-01T08:23:47;7.47;;;3.57;;
13481;SDS011;6813;60.352;15.746;2023-02-01T08:26:15;6.80;;;3.43;;
13481;SDS011;6813;60.352;15.746;2023-02-01T08:28:43;5.70;;;3.13;;
13481;SDS011;6813;60.352;15.746;2023-02-01T08:31:15;6.30;;;2.80;;
13481;SDS011;6813;60.352;15.746;2023-02-01T08:33:42;4.17;;;2.93;;
13481;SDS011;6813;60.352;15.746;2023-02-01T08:36:09;3.57;;;2.50;;
13481;SDS011;6813;60.352;15.746;2023-02-01T08:38:36;5.60;;;2.70;;
13481;SDS011;6813;60.352;15.746;2023-02-01T08:41:10;4.37;;;2.70;;
13481;SDS011;6813;60.352;15.746;2023-02-01T08:43:41;4.63;;;2.77;;
13481;SDS011;6813;60.352;15.746;2023-02-01T08:46:07;4.67;;;3.07;;
13481;SDS011;6813;60.352;15.746;2023-02-01T08:48:34;6.70;;;3.17;;
13481;SDS011;6813;60.352;15.746;2023-02-01T08:51:04;4.47;;;3.37;;
13481;SDS011;6813;60.352;15.746;2023-02-01T08:53:35;6.77;;;2.87;;
13481;SDS011;6813;60.352;15.746;2023-02-01T08:56:02;5.70;;;3.53;;
13481;SDS011;6813;60.352;15.746;2023-02-01T08:58:28;7.83;;;3.30;;
13481;SDS011;6813;60.352;15.746;2023-02-01T09:00:53;5.47;;;3.37;;
13481;SDS011;6813;60.352;15.746;2023-02-01T09:03:20;6.63;;;3.13;;
13481;SDS011;6813;60.352;15.746;2023-02-01T09:05:45;4.47;;;2.80;;
13481;SDS011;6813;60.352;15.746;2023-02-01T09:08:12;3.80;;;2.60;;
13481;SDS011;6813;60.352;15.746;2023-02-01T09:10:40;7.13;;;2.93;;
13481;SDS011;6813;60.352;15.746;2023-02-01T09:13:07;3.57;;;2.60;;
13481;SDS011;6813;60.352;15.746;2023-02-01T09:15:33;4.27;;;3.10;;
13481;SDS011;6813;60.352;15.746;2023-02-01T09:17:59;3.40;;;2.77;;
13481;SDS011;6813;60.352;15.746;2023-02-01T09:20:25;4.63;;;2.43;;
13481;SDS011;6813;60.352;15.746;2023-02-01T09:22:51;3.17;;;2.30;;
13481;SDS011;6813;60.352;15.746;2023-02-01T09:25:17;3.60;;;2.50;;
13481;SDS011;6813;60.352;15.746;2023-02-01T09:27:43;3.73;;;2.60;;
13481;SDS011;6813;60.352;15.746;2023-02-01T09:30:09;2.93;;;2.30;;
13481;SDS011;6813;60.352;15.746;2023-02-01T09:32:35;3.87;;;2.73;;
13481;SDS011;6813;60.352;15.746;2023-02-01T09:35:01;5.10;;;2.60;;
13481;SDS011;6813;60.352;15.746;2023-02-01T09:37:27;6.10;;;2.70;;
13481;SDS011;6813;60.352;15.746;2023-02-01T09:39:53;4.37;;;2.13;;
13481;SDS011;6813;60.352;15.746;2023-02-01T09:47:28;4.33;;;2.37;;
13481;SDS011;6813;60.352;15.746;2023-02-01T09:49:56;4.67;;;2.73;;
13481;SDS011;6813;60.352;15.746;2023-02-01T09:55:39;4.20;;;2.73;;
13481;SDS011;6813;60.352;15.746;2023-02-01T09:58:22;5.67;;;2.90;;
13481;SDS011;6813;60.352;15.746;2023-02-01T10:01:03;2.60;;;2.13;;
13481;SDS011;6813;60.352;15.746;2023-02-01T10:03:32;6.03;;;2.27;;
13481;SDS011;6813;60.352;15.746;2023-02-01T10:22:43;5.50;;;2.30;;
13481;SDS011;6813;60.352;15.746;2023-02-01T10:28:22;4.10;;;2.33;;
13481;SDS011;6813;60.352;15.746;2023-02-01T10:30:51;3.53;;;1.97;;
13481;SDS011;6813;60.352;15.746;2023-02-01T10:35:58;3.63;;;2.10;;
13481;SDS011;6813;60.352;15.746;2023-02-01T10:38:39;5.47;;;2.10;;
13481;SDS011;6813;60.352;15.746;2023-02-01T10:41:11;3.37;;;1.57;;
13481;SDS011;6813;60.352;15.746;2023-02-01T10:43:42;3.40;;;1.93;;
13481;SDS011;6813;60.352;15.746;2023-02-01T10:46:12;3.50;;;1.77;;
13481;SDS011;6813;60.352;15.746;2023-02-01T10:48:37;3.63;;;2.07;;
13481;SDS011;6813;60.352;15.746;2023-02-01T10:51:06;2.00;;;1.80;;
13481;SDS011;6813;60.352;15.746;2023-02-01T10:53:50;3.53;;;2.20;;
13481;SDS011;6813;60.352;15.746;2023-02-01T10:56:24;4.73;;;1.83;;
13481;SDS011;6813;60.352;15.746;2023-02-01T10:58:51;5.30;;;1.97;;
13481;SDS011;6813;60.352;15.746;2023-02-01T11:03:55;4.40;;;2.20;;
13481;SDS011;6813;60.352;15.746;2023-02-01T11:06:30;3.73;;;2.10;;
13481;SDS011;6813;60.352;15.746;2023-02-01T11:09:14;2.40;;;1.97;;
13481;SDS011;6813;60.352;15.746;2023-02-01T11:17:32;2.30;;;1.50;;
13481;SDS011;6813;60.352;15.746;2023-02-01T11:19:38;2.83;;;1.40;;
13481;SDS011;6813;60.352;15.746;2023-02-01T11:22:08;4.13;;;1.67;;
13481;SDS011;6813;60.352;15.746;2023-02-01T11:24:36;1.40;;;1.10;;
13481;SDS011;6813;60.352;15.746;2023-02-01T11:27:05;3.73;;;1.57;;
13481;SDS011;6813;60.352;15.746;2023-02-01T11:29:39;2.10;;;1.67;;
13481;SDS011;6813;60.352;15.746;2023-02-01T11:32:10;2.07;;;1.30;;
13481;SDS011;6813;60.352;15.746;2023-02-01T11:34:40;4.30;;;1.50;;
13481;SDS011;6813;60.352;15.746;2023-02-01T11:37:14;4.97;;;1.40;;
13481;SDS011;6813;60.352;15.746;2023-02-01T11:40:34;3.67;;;1.40;;
13481;SDS011;6813;60.352;15.746;2023-02-01T11:43:07;2.33;;;1.40;;
13481;SDS011;6813;60.352;15.746;2023-02-01T11:45:33;2.50;;;1.30;;
13481;SDS011;6813;60.352;15.746;2023-02-01T11:48:00;3.50;;;1.67;;
13481;SDS011;6813;60.352;15.746;2023-02-01T12:12:35;1.80;;;1.17;;
13481;SDS011;6813;60.352;15.746;2023-02-01T12:15:27;5.70;;;2.97;;
13481;SDS011;6813;60.352;15.746;2023-02-01T12:24:23;2.50;;;1.57;;
13481;SDS011;6813;60.352;15.746;2023-02-01T12:32:46;1.83;;;1.37;;
13481;SDS011;6813;60.352;15.746;2023-02-01T12:43:49;2.03;;;1.70;;
13481;SDS011;6813;60.352;15.746;2023-02-01T12:46:29;5.20;;;2.27;;
13481;SDS011;6813;60.352;15.746;2023-02-01T12:49:03;3.80;;;2.63;;
13481;SDS011;6813;60.352;15.746;2023-02-01T12:51:39;2.77;;;1.67;;
13481;SDS011;6813;60.352;15.746;2023-02-01T12:59:55;2.27;;;1.70;;
13481;SDS011;6813;60.352;15.746;2023-02-01T13:07:53;4.23;;;1.80;;
13481;SDS011;6813;60.352;15.746;2023-02-01T13:16:24;4.83;;;1.70;;
13481;SDS011;6813;60.352;15.746;2023-02-01T13:18:54;5.50;;;2.53;;
13481;SDS011;6813;60.352;15.746;2023-02-01T13:21:45;3.67;;;1.73;;
13481;SDS011;6813;60.352;15.746;2023-02-01T13:27:16;2.53;;;1.60;;
13481;SDS011;6813;60.352;15.746;2023-02-01T13:30:02;3.67;;;1.30;;
13481;SDS011;6813;60.352;15.746;2023-02-01T13:43:38;3.23;;;1.40;;
13481;SDS011;6813;60.352;15.746;2023-02-01T13:46:07;3.03;;;1.27;;
13481;SDS011;6813;60.352;15.746;2023-02-01T13:48:39;3.53;;;1.20;;
13481;SDS011;6813;60.352;15.746;2023-02-01T13:51:18;6.30;;;1.50;;
13481;SDS011;6813;60.352;15.746;2023-02-01T13:53:58;5.87;;;1.10;;
13481;SDS011;6813;60.352;15.746;2023-02-01T13:56:25;3.13;;;1.40;;
13481;SDS011;6813;60.352;15.746;2023-02-01T13:58:52;3.80;;;1.57;;
13481;SDS011;6813;60.352;15.746;2023-02-01T14:19:20;4.10;;;1.83;;
13481;SDS011;6813;60.352;15.746;2023-02-01T14:22:32;2.33;;;1.30;;
13481;SDS011;6813;60.352;15.746;2023-02-01T14:24:51;5.20;;;1.80;;
13481;SDS011;6813;60.352;15.746;2023-02-01T14:27:23;3.30;;;1.83;;
13481;SDS011;6813;60.352;15.746;2023-02-01T14:29:53;2.40;;;1.73;;
13481;SDS011;6813;60.352;15.746;2023-02-01T14:32:23;6.13;;;2.40;;
13481;SDS011;6813;60.352;15.746;2023-02-01T14:34:56;2.97;;;2.10;;
13481;SDS011;6813;60.352;15.746;2023-02-01T14:37:29;4.07;;;1.57;;
13481;SDS011;6813;60.352;15.746;2023-02-01T14:40:04;2.63;;;1.33;;
13481;SDS011;6813;60.352;15.746;2023-02-01T14:42:48;2.90;;;1.60;;
13481;SDS011;6813;60.352;15.746;2023-02-01T14:52:58;3.30;;;1.63;;
13481;SDS011;6813;60.352;15.746;2023-02-01T15:00:58;2.67;;;1.50;;
13481;SDS011;6813;60.352;15.746;2023-02-01T15:06:52;15.60;;;1.90;;
13481;SDS011;6813;60.352;15.746;2023-02-01T15:12:04;4.00;;;1.93;;
13481;SDS011;6813;60.352;15.746;2023-02-01T15:14:35;3.63;;;2.13;;
13481;SDS011;6813;60.352;15.746;2023-02-01T15:17:15;2.50;;;2.27;;
13481;SDS011;6813;60.352;15.746;2023-02-01T15:20:44;2.80;;;1.60;;
13481;SDS011;6813;60.352;15.746;2023-02-01T15:25:27;3.67;;;2.00;;
13481;SDS011;6813;60.352;15.746;2023-02-01T15:27:55;3.13;;;1.73;;
13481;SDS011;6813;60.352;15.746;2023-02-01T15:33:05;3.47;;;1.67;;
13481;SDS011;6813;60.352;15.746;2023-02-01T15:35:34;3.80;;;1.97;;
13481;SDS011;6813;60.352;15.746;2023-02-01T15:43:42;2.43;;;1.53;;
13481;SDS011;6813;60.352;15.746;2023-02-01T15:46:35;2.30;;;1.30;;
13481;SDS011;6813;60.352;15.746;2023-02-01T15:49:03;2.37;;;1.60;;
13481;SDS011;6813;60.352;15.746;2023-02-01T15:51:43;2.30;;;1.80;;
13481;SDS011;6813;60.352;15.746;2023-02-01T15:54:17;5.90;;;1.97;;
13481;SDS011;6813;60.352;15.746;2023-02-01T15:56:56;23.53;;;2.47;;
13481;SDS011;6813;60.352;15.746;2023-02-01T15:59:29;4.03;;;1.60;;
13481;SDS011;6813;60.352;15.746;2023-02-01T16:02:00;5.33;;;1.87;;
13481;SDS011;6813;60.352;15.746;2023-02-01T16:04:26;2.40;;;1.73;;
13481;SDS011;6813;60.352;15.746;2023-02-01T16:07:01;3.93;;;1.80;;
13481;SDS011;6813;60.352;15.746;2023-02-01T16:09:39;2.43;;;1.90;;
13481;SDS011;6813;60.352;15.746;2023-02-01T16:15:19;2.83;;;2.00;;
13481;SDS011;6813;60.352;15.746;2023-02-01T16:17:44;18.03;;;3.10;;
13481;SDS011;6813;60.352;15.746;2023-02-01T16:20:11;3.63;;;1.70;;
13481;SDS011;6813;60.352;15.746;2023-02-01T16:22:37;5.33;;;2.10;;
13481;SDS011;6813;60.352;15.746;2023-02-01T16:25:02;3.33;;;2.20;;
13481;SDS011;6813;60.352;15.746;2023-02-01T16:27:28;2.13;;;1.50;;
13481;SDS011;6813;60.352;15.746;2023-02-01T16:29:54;1.77;;;1.50;;
13481;SDS011;6813;60.352;15.746;2023-02-01T16:32:21;5.17;;;2.43;;
13481;SDS011;6813;60.352;15.746;2023-02-01T16:34:47;13.13;;;3.30;;
13481;SDS011;6813;60.352;15.746;2023-02-01T16:37:15;9.13;;;1.80;;
13481;SDS011;6813;60.352;15.746;2023-02-01T16:39:45;3.27;;;1.47;;
13481;SDS011;6813;60.352;15.746;2023-02-01T16:42:12;2.50;;;1.83;;
13481;SDS011;6813;60.352;15.746;2023-02-01T16:44:39;3.63;;;1.63;;
13481;SDS011;6813;60.352;15.746;2023-02-01T16:47:10;2.47;;;1.80;;
13481;SDS011;6813;60.352;15.746;2023-02-01T16:49:41;4.63;;;1.57;;
13481;SDS011;6813;60.352;15.746;2023-02-01T16:52:11;3.53;;;2.03;;
13481;SDS011;6813;60.352;15.746;2023-02-01T16:54:42;4.33;;;2.57;;
13481;SDS011;6813;60.352;15.746;2023-02-01T16:57:10;4.93;;;2.13;;
13481;SDS011;6813;60.352;15.746;2023-02-01T16:59:38;3.30;;;2.20;;
13481;SDS011;6813;60.352;15.746;2023-02-01T17:02:04;3.20;;;2.00;;
13481;SDS011;6813;60.352;15.746;2023-02-01T17:04:30;2.60;;;1.90;;
13481;SDS011;6813;60.352;15.746;2023-02-01T17:06:55;2.80;;;1.60;;
13481;SDS011;6813;60.352;15.746;2023-02-01T17:09:23;3.13;;;2.00;;
13481;SDS011;6813;60.352;15.746;2023-02-01T17:11:50;3.07;;;1.60;;
13481;SDS011;6813;60.352;15.746;2023-02-01T17:14:17;3.03;;;2.30;;
13481;SDS011;6813;60.352;15.746;2023-02-01T17:16:45;5.40;;;2.70;;
13481;SDS011;6813;60.352;15.746;2023-02-01T17:19:14;4.10;;;2.83;;
13481;SDS011;6813;60.352;15.746;2023-02-01T17:21:48;6.37;;;2.30;;
13481;SDS011;6813;60.352;15.746;2023-02-01T17:24:17;57.50;;;5.47;;
13481;SDS011;6813;60.352;15.746;2023-02-01T17:26:45;3.67;;;2.40;;
13481;SDS011;6813;60.352;15.746;2023-02-01T17:29:11;5.13;;;3.03;;
13481;SDS011;6813;60.352;15.746;2023-02-01T17:31:38;7.73;;;3.60;;
13481;SDS011;6813;60.352;15.746;2023-02-01T17:34:12;4.80;;;2.90;;
13481;SDS011;6813;60.352;15.746;2023-02-01T17:36:43;7.30;;;3.40;;
13481;SDS011;6813;60.352;15.746;2023-02-01T17:39:10;4.80;;;3.23;;
13481;SDS011;6813;60.352;15.746;2023-02-01T17:41:56;6.00;;;3.73;;
13481;SDS011;6813;60.352;15.746;2023-02-01T17:44:23;5.93;;;3.40;;
13481;SDS011;6813;60.352;15.746;2023-02-01T17:46:48;6.40;;;3.00;;
13481;SDS011;6813;60.352;15.746;2023-02-01T17:49:14;6.60;;;3.50;;
13481;SDS011;6813;60.352;15.746;2023-02-01T17:51:40;5.07;;;3.60;;
13481;SDS011;6813;60.352;15.746;2023-02-01T17:54:12;9.50;;;3.80;;
13481;SDS011;6813;60.352;15.746;2023-02-01T17:56:39;6.27;;;3.23;;
13481;SDS011;6813;60.352;15.746;2023-02-01T17:59:05;7.30;;;3.07;;
13481;SDS011;6813;60.352;15.746;2023-02-01T18:01:31;4.60;;;2.97;;
13481;SDS011;6813;60.352;15.746;2023-02-01T18:03:57;10.53;;;3.07;;
13481;SDS011;6813;60.352;15.746;2023-02-01T18:06:23;5.23;;;2.90;;
13481;SDS011;6813;60.352;15.746;2023-02-01T18:08:54;6.33;;;3.37;;
13481;SDS011;6813;60.352;15.746;2023-02-01T18:11:21;7.17;;;4.23;;
13481;SDS011;6813;60.352;15.746;2023-02-01T18:13:49;7.37;;;4.10;;
13481;SDS011;6813;60.352;15.746;2023-02-01T18:16:21;8.27;;;3.53;;
13481;SDS011;6813;60.352;15.746;2023-02-01T18:18:51;7.20;;;3.20;;
13481;SDS011;6813;60.352;15.746;2023-02-01T18:21:19;7.40;;;3.23;;
13481;SDS011;6813;60.352;15.746;2023-02-01T18:23:46;8.33;;;3.70;;
13481;SDS011;6813;60.352;15.746;2023-02-01T18:26:13;12.17;;;5.37;;
13481;SDS011;6813;60.352;15.746;2023-02-01T18:28:41;8.73;;;4.40;;
13481;SDS011;6813;60.352;15.746;2023-02-01T18:31:16;8.43;;;3.87;;